Time;durP1;ratioP1;P1;durP2;ratioP2;P2;SDS_P1;SDS_P2;PMS_P1;PMS_P2;Temp;Humidity;BMP_temperature;BMP_pressure;BME280_temperature;BME280_humidity;BME280_pressure;Samples;Min_cycle;Max_cycle;Signal;HPM_P1;HPM_P2
2022/10/22 00:02:21;;;;;;;4.87;2.43;;;14.90;99.90;;;;;;5036064;28;20674;-56
2022/10/22 00:04:50;;;;;;;5.80;2.63;;;14.90;99.90;;;;;;5048405;28;20505;-60
2022/10/22 00:07:17;;;;;;;3.67;2.33;;;14.80;99.90;;;;;;5036189;28;20209;-56
2022/10/22 00:09:45;;;;;;;7.90;3.10;;;14.80;99.90;;;;;;5048814;28;20231;-55
2022/10/22 00:12:14;;;;;;;6.43;2.23;;;14.70;99.90;;;;;;5051174;28;20219;-56
2022/10/22 00:14:41;;;;;;;6.23;2.80;;;14.80;99.90;;;;;;5047523;28;20836;-56
2022/10/22 00:17:08;;;;;;;4.77;2.20;;;14.80;99.90;;;;;;5049327;28;20244;-55
2022/10/22 00:19:38;;;;;;;3.80;2.40;;;14.70;99.90;;;;;;5044916;28;20185;-55
2022/10/22 00:22:06;;;;;;;5.23;2.53;;;14.70;99.90;;;;;;5047234;28;21166;-56
2022/10/22 00:24:33;;;;;;;4.90;2.40;;;14.80;99.90;;;;;;5046133;28;20296;-55
2022/10/22 00:27:01;;;;;;;3.97;2.40;;;14.80;99.90;;;;;;5049059;28;20288;-56
2022/10/22 00:29:28;;;;;;;6.37;2.67;;;14.80;99.90;;;;;;5043676;28;20231;-56
2022/10/22 00:31:55;;;;;;;4.70;2.23;;;14.80;99.90;;;;;;5048035;28;20197;-55
2022/10/22 00:34:27;;;;;;;3.83;2.40;;;14.80;99.90;;;;;;5047436;28;20197;-56
2022/10/22 00:36:54;;;;;;;5.67;2.53;;;14.70;99.90;;;;;;5046642;28;20284;-55
2022/10/22 00:39:23;;;;;;;9.17;2.73;;;14.80;99.90;;;;;;5045820;28;20205;-56
2022/10/22 00:41:52;;;;;;;4.30;2.43;;;14.80;99.90;;;;;;5046289;28;20223;-56
2022/10/22 00:44:56;;;;;;;4.10;2.13;;;14.90;99.90;;;;;;5047839;28;20675;-56
2022/10/22 00:47:24;;;;;;;4.83;2.70;;;14.90;99.90;;;;;;5050371;28;20202;-57
2022/10/22 00:49:53;;;;;;;9.97;2.53;;;14.90;99.90;;;;;;5045301;28;20203;-55
2022/10/22 00:52:21;;;;;;;7.40;2.33;;;14.90;99.90;;;;;;5044508;28;20261;-56
2022/10/22 00:54:48;;;;;;;5.33;2.67;;;14.90;99.90;;;;;;5041698;28;20584;-55
2022/10/22 00:57:18;;;;;;;6.77;2.70;;;14.90;99.90;;;;;;5042478;28;20217;-56
2022/10/22 00:59:46;;;;;;;4.10;2.90;;;14.90;99.90;;;;;;5041444;28;20566;-55
2022/10/22 01:02:13;;;;;;;6.17;2.20;;;14.90;99.90;;;;;;5043438;28;20193;-56
2022/10/22 01:04:40;;;;;;;3.93;3.20;;;14.80;99.90;;;;;;5047730;28;20210;-55
2022/10/22 01:07:16;;;;;;;5.80;2.50;;;14.80;99.90;;;;;;5034780;28;20194;-56
2022/10/22 01:09:57;;;;;;;5.97;2.10;;;14.90;99.90;;;;;;5041104;28;20220;-56
2022/10/22 01:12:42;;;;;;;8.87;2.97;;;14.80;99.90;;;;;;5043594;28;20193;-56
2022/10/22 01:15:15;;;;;;;4.20;2.20;;;14.80;99.90;;;;;;5039888;28;20205;-56
2022/10/22 01:17:49;;;;;;;6.67;2.23;;;14.80;99.90;;;;;;5042759;28;20216;-55
2022/10/22 01:20:28;;;;;;;6.40;2.37;;;14.90;99.90;;;;;;5042051;28;20241;-56
2022/10/22 01:23:04;;;;;;;5.10;2.53;;;14.90;99.90;;;;;;5059682;28;20193;-56
2022/10/22 01:25:37;;;;;;;3.97;2.27;;;14.80;99.90;;;;;;5043596;28;20291;-56
2022/10/22 01:28:30;;;;;;;7.23;2.53;;;14.80;99.90;;;;;;5044788;28;20320;-56
2022/10/22 01:30:58;;;;;;;4.37;2.33;;;14.70;99.90;;;;;;5040895;28;20223;-55
2022/10/22 01:33:27;;;;;;;2.93;1.90;;;14.60;99.90;;;;;;5043751;28;20235;-55
2022/10/22 01:35:54;;;;;;;3.27;2.50;;;14.70;99.90;;;;;;5044976;28;20211;-56
2022/10/22 01:38:23;;;;;;;5.77;2.63;;;14.70;99.90;;;;;;5046434;28;20205;-55
2022/10/22 01:40:51;;;;;;;5.73;2.37;;;14.70;99.90;;;;;;5046752;28;20675;-56
2022/10/22 01:43:18;;;;;;;3.67;2.47;;;14.60;99.90;;;;;;5044411;28;20656;-56
2022/10/22 01:45:50;;;;;;;6.27;2.77;;;14.70;99.90;;;;;;5047687;28;20623;-55
2022/10/22 01:48:20;;;;;;;5.87;2.73;;;14.70;99.90;;;;;;5037950;28;20216;-56
2022/10/22 01:51:06;;;;;;;6.87;2.80;;;14.60;99.90;;;;;;5047213;28;20242;-56
2022/10/22 01:53:52;;;;;;;4.83;2.60;;;14.60;99.90;;;;;;5041120;28;20479;-56
2022/10/22 01:56:54;;;;;;;3.77;2.40;;;14.60;99.90;;;;;;5043598;28;20576;-56
2022/10/22 01:59:48;;;;;;;5.70;2.70;;;14.60;99.90;;;;;;5032998;28;20562;-56
2022/10/22 02:02:24;;;;;;;5.93;2.83;;;14.50;99.90;;;;;;5042742;28;20214;-55
2022/10/22 02:05:04;;;;;;;6.27;2.50;;;14.50;99.90;;;;;;5041951;28;20214;-56
2022/10/22 02:07:38;;;;;;;5.10;2.93;;;14.50;99.90;;;;;;5046756;28;20700;-55
2022/10/22 02:10:06;;;;;;;4.30;2.57;;;14.50;99.90;;;;;;5045546;28;20311;-55
2022/10/22 02:12:34;;;;;;;6.90;3.50;;;14.40;99.90;;;;;;5046003;28;20657;-56
2022/10/22 02:15:02;;;;;;;4.20;2.50;;;14.40;99.90;;;;;;5042767;28;20211;-55
2022/10/22 02:17:32;;;;;;;6.60;2.77;;;14.40;99.90;;;;;;5047164;28;20296;-56
2022/10/22 02:20:04;;;;;;;4.90;2.77;;;14.30;99.90;;;;;;5043949;28;20205;-55
2022/10/22 02:22:32;;;;;;;4.40;2.60;;;14.30;99.90;;;;;;5041342;28;20686;-56
2022/10/22 02:24:59;;;;;;;5.63;2.53;;;14.30;99.90;;;;;;5047010;28;21041;-56
2022/10/22 02:27:34;;;;;;;8.47;3.40;;;14.40;99.90;;;;;;5048542;28;20208;-55
2022/10/22 02:30:05;;;;;;;8.03;3.13;;;14.40;99.90;;;;;;5046541;28;20726;-56
2022/10/22 02:33:05;;;;;;;3.37;2.50;;;14.40;99.90;;;;;;5047665;28;20709;-56
2022/10/22 02:35:33;;;;;;;4.90;3.17;;;14.30;99.90;;;;;;5044262;28;20705;-55
2022/10/22 02:38:01;;;;;;;5.90;3.20;;;14.30;99.90;;;;;;5046989;28;20767;-55
2022/10/22 02:40:30;;;;;;;5.70;2.57;;;14.30;99.90;;;;;;5038902;28;20848;-55
2022/10/22 02:42:57;;;;;;;4.33;2.93;;;14.30;99.90;;;;;;5047634;28;20198;-56
2022/10/22 02:45:24;;;;;;;4.07;2.50;;;14.20;99.90;;;;;;5045155;28;20717;-56
2022/10/22 02:47:51;;;;;;;7.90;3.20;;;14.20;99.90;;;;;;5044616;28;20233;-56
2022/10/22 02:50:18;;;;;;;10.83;3.77;;;14.20;99.90;;;;;;5044841;28;20511;-55
2022/10/22 02:52:45;;;;;;;5.40;2.83;;;14.20;99.90;;;;;;5045607;28;20212;-56
2022/10/22 02:55:12;;;;;;;5.77;2.80;;;14.10;99.90;;;;;;5045792;28;20233;-55
2022/10/22 02:57:39;;;;;;;9.17;3.40;;;14.20;99.90;;;;;;5049205;28;20637;-55
2022/10/22 03:00:07;;;;;;;4.33;2.60;;;14.20;99.90;;;;;;5045601;28;20206;-56
2022/10/22 03:02:34;;;;;;;8.73;2.87;;;14.30;99.90;;;;;;5040714;28;20709;-55
2022/10/22 03:05:02;;;;;;;5.50;2.70;;;14.20;99.90;;;;;;5044123;28;20401;-55
2022/10/22 03:07:28;;;;;;;9.53;3.40;;;14.10;99.90;;;;;;5039378;28;20214;-56
2022/10/22 03:09:55;;;;;;;6.80;2.77;;;14.20;99.90;;;;;;5048487;28;20718;-55
2022/10/22 03:12:22;;;;;;;9.50;3.73;;;14.20;99.90;;;;;;5044041;28;20228;-55
2022/10/22 03:14:49;;;;;;;5.30;2.77;;;14.20;99.90;;;;;;5044086;28;20288;-55
2022/10/22 03:17:17;;;;;;;8.87;3.33;;;14.10;99.90;;;;;;5042187;28;20639;-56
2022/10/22 03:19:44;;;;;;;5.43;3.27;;;14.10;99.90;;;;;;5039563;28;20905;-55
2022/10/22 03:22:25;;;;;;;6.53;3.20;;;14.20;99.90;;;;;;5043460;28;20207;-56
2022/10/22 03:24:57;;;;;;;7.20;3.20;;;14.20;99.90;;;;;;5043287;28;20663;-55
2022/10/22 03:27:25;;;;;;;10.10;2.97;;;14.20;99.90;;;;;;5046090;28;20193;-55
2022/10/22 03:29:52;;;;;;;5.00;3.30;;;14.20;99.90;;;;;;5042449;28;20206;-56
2022/10/22 03:32:19;;;;;;;5.97;3.23;;;14.10;99.90;;;;;;5043838;28;20226;-56
2022/10/22 03:34:46;;;;;;;8.13;3.20;;;14.10;99.90;;;;;;5046469;28;20207;-55
2022/10/22 03:37:13;;;;;;;9.33;3.40;;;14.10;99.90;;;;;;5044254;28;20199;-56
2022/10/22 03:39:40;;;;;;;8.07;4.17;;;14.10;99.90;;;;;;5046898;28;20216;-56
2022/10/22 03:42:07;;;;;;;8.37;3.60;;;14.10;99.90;;;;;;5044774;28;20210;-56
2022/10/22 03:44:39;;;;;;;7.70;3.40;;;14.10;99.90;;;;;;5045572;28;20679;-55
2022/10/22 03:47:06;;;;;;;11.13;3.40;;;14.10;99.90;;;;;;5048669;28;20669;-56
2022/10/22 03:49:32;;;;;;;7.27;3.80;;;14.10;99.90;;;;;;5040443;28;20196;-56
2022/10/22 03:52:07;;;;;;;9.70;3.83;;;14.10;99.90;;;;;;5050090;28;20205;-56
2022/10/22 03:54:35;;;;;;;7.53;3.20;;;14.10;99.90;;;;;;5046956;28;20318;-56
2022/10/22 03:57:03;;;;;;;10.27;3.57;;;14.00;99.90;;;;;;5046693;28;20206;-57
2022/10/22 03:59:39;;;;;;;8.37;3.80;;;14.10;99.90;;;;;;5046201;28;20230;-59
2022/10/22 04:02:06;;;;;;;10.97;4.03;;;14.00;99.90;;;;;;5048285;28;20288;-57
2022/10/22 04:04:34;;;;;;;5.40;3.20;;;14.00;99.90;;;;;;5045354;28;20283;-58
2022/10/22 04:07:01;;;;;;;7.27;3.50;;;14.00;99.90;;;;;;5047844;28;20223;-55
2022/10/22 04:09:31;;;;;;;9.13;3.30;;;14.10;99.90;;;;;;5048914;28;20208;-63
2022/10/22 04:11:58;;;;;;;6.03;3.43;;;14.10;99.90;;;;;;5048735;28;20201;-57
2022/10/22 04:14:25;;;;;;;11.80;3.57;;;14.00;99.90;;;;;;5048268;28;20199;-57
2022/10/22 04:16:52;;;;;;;7.57;3.47;;;14.10;99.90;;;;;;5046435;28;20202;-55
2022/10/22 04:19:19;;;;;;;9.87;4.47;;;14.00;99.90;;;;;;5048372;28;20225;-56
2022/10/22 04:21:46;;;;;;;9.80;3.30;;;14.10;99.90;;;;;;5047102;28;20224;-56
2022/10/22 04:24:13;;;;;;;9.43;3.53;;;14.00;99.90;;;;;;5048527;28;20283;-56
2022/10/22 04:26:40;;;;;;;11.33;3.70;;;14.00;99.90;;;;;;5051291;28;20206;-55
2022/10/22 04:29:07;;;;;;;9.70;3.40;;;14.10;99.90;;;;;;5044818;28;20204;-56
2022/10/22 04:31:40;;;;;;;6.00;3.17;;;14.10;99.90;;;;;;5046949;28;20207;-56
2022/10/22 04:34:07;;;;;;;12.10;3.67;;;14.10;99.90;;;;;;5044155;28;20209;-56
2022/10/22 04:36:34;;;;;;;8.40;3.30;;;14.20;99.90;;;;;;5036080;28;20229;-55
2022/10/22 04:39:02;;;;;;;6.63;3.50;;;14.10;99.90;;;;;;5044960;28;20747;-56
2022/10/22 04:41:32;;;;;;;7.37;3.20;;;14.10;99.90;;;;;;5050872;28;20215;-56
2022/10/22 04:43:59;;;;;;;7.33;4.27;;;14.10;99.90;;;;;;5047797;28;20508;-55
2022/10/22 04:46:29;;;;;;;11.60;3.80;;;14.10;99.90;;;;;;5051078;28;20203;-56
2022/10/22 04:48:56;;;;;;;7.47;3.47;;;14.10;99.90;;;;;;5043961;28;20699;-55
2022/10/22 04:51:25;;;;;;;8.23;3.37;;;14.00;99.90;;;;;;5048560;28;20286;-57
2022/10/22 04:53:52;;;;;;;11.73;3.20;;;13.90;99.90;;;;;;5046882;28;20249;-56
2022/10/22 04:56:27;;;;;;;7.07;3.90;;;13.90;99.90;;;;;;5054162;28;20211;-55
2022/10/22 04:58:56;;;;;;;6.70;2.97;;;14.00;99.90;;;;;;5048616;28;20288;-56
2022/10/22 05:01:32;;;;;;;8.13;2.90;;;14.00;99.90;;;;;;5044055;28;20370;-55
2022/10/22 05:04:07;;;;;;;8.67;3.53;;;14.00;99.90;;;;;;5048812;28;20196;-57
2022/10/22 05:06:36;;;;;;;7.10;2.87;;;14.00;99.90;;;;;;5051712;28;20288;-55
2022/10/22 05:09:06;;;;;;;5.80;3.57;;;14.00;99.90;;;;;;5047837;28;20590;-55
2022/10/22 05:11:36;;;;;;;4.43;3.10;;;14.00;99.90;;;;;;5046609;28;20225;-55
2022/10/22 05:14:05;;;;;;;7.83;2.90;;;14.10;99.90;;;;;;5043689;28;20211;-56
2022/10/22 05:16:33;;;;;;;7.63;4.47;;;14.00;99.90;;;;;;5041431;28;20680;-56
2022/10/22 05:19:00;;;;;;;4.73;2.53;;;14.00;99.90;;;;;;5045162;28;20314;-55
2022/10/22 05:21:28;;;;;;;6.77;3.10;;;14.00;99.90;;;;;;5049426;28;20684;-55
2022/10/22 05:23:56;;;;;;;5.67;2.27;;;14.00;99.90;;;;;;5053481;28;20194;-55
2022/10/22 05:26:23;;;;;;;5.10;2.53;;;14.00;99.90;;;;;;5042935;28;20201;-55
2022/10/22 05:28:51;;;;;;;17.67;3.07;;;14.00;99.90;;;;;;5048338;28;20205;-55
2022/10/22 05:31:18;;;;;;;8.53;2.77;;;14.10;99.90;;;;;;5047394;28;20200;-56
2022/10/22 05:33:46;;;;;;;8.73;2.77;;;14.10;99.90;;;;;;5048717;28;20225;-55
2022/10/22 05:36:15;;;;;;;9.33;2.37;;;14.00;99.90;;;;;;5049856;28;20283;-56
2022/10/22 05:38:42;;;;;;;8.33;3.20;;;14.10;99.90;;;;;;5048545;28;20311;-56
2022/10/22 05:41:12;;;;;;;8.10;3.03;;;14.10;99.90;;;;;;5050833;28;20718;-55
2022/10/22 05:43:40;;;;;;;7.43;2.50;;;14.10;99.90;;;;;;5040680;28;20203;-56
2022/10/22 05:46:10;;;;;;;7.07;3.27;;;14.10;99.90;;;;;;5046843;28;20621;-55
2022/10/22 05:48:37;;;;;;;5.40;2.37;;;14.10;99.90;;;;;;5047864;28;20232;-56
2022/10/22 05:51:06;;;;;;;9.70;3.23;;;14.00;99.90;;;;;;5047966;28;20237;-55
2022/10/22 05:53:33;;;;;;;12.93;3.43;;;14.00;99.90;;;;;;5047548;28;20212;-54
2022/10/22 05:56:06;;;;;;;7.67;2.63;;;14.00;99.90;;;;;;5036798;28;20204;-55
2022/10/22 05:58:33;;;;;;;7.27;2.40;;;13.90;99.90;;;;;;5041258;28;20198;-54
2022/10/22 06:01:10;;;;;;;7.30;2.37;;;14.00;99.90;;;;;;5035526;28;20961;-57
2022/10/22 06:03:37;;;;;;;8.80;2.80;;;14.00;99.90;;;;;;5047452;28;20195;-54
2022/10/22 06:06:17;;;;;;;6.03;2.80;;;14.10;99.90;;;;;;5047487;28;20664;-62
2022/10/22 06:08:47;;;;;;;4.67;2.27;;;14.00;99.90;;;;;;5042374;28;20207;-57
2022/10/22 06:11:16;;;;;;;5.40;2.67;;;14.00;99.90;;;;;;5047285;28;20252;-56
2022/10/22 06:13:44;;;;;;;10.03;2.40;;;14.10;99.90;;;;;;5046540;28;20205;-57
2022/10/22 06:16:11;;;;;;;8.97;2.20;;;14.10;99.90;;;;;;5044275;28;20207;-55
2022/10/22 06:18:38;;;;;;;6.70;2.40;;;14.10;99.90;;;;;;5038011;28;20208;-56
2022/10/22 06:21:13;;;;;;;11.67;2.60;;;14.10;99.90;;;;;;5046938;28;20278;-58
2022/10/22 06:23:41;;;;;;;4.67;1.73;;;14.00;99.90;;;;;;5041230;28;20199;-56
2022/10/22 06:26:08;;;;;;;4.90;1.97;;;14.00;99.90;;;;;;5050785;28;20672;-57
2022/10/22 06:28:35;;;;;;;10.53;2.73;;;14.00;99.90;;;;;;5047830;28;20304;-57
2022/10/22 06:31:03;;;;;;;5.07;2.30;;;14.00;99.90;;;;;;5050149;28;20202;-56
2022/10/22 06:33:32;;;;;;;6.17;1.83;;;14.00;99.90;;;;;;5050121;28;20292;-56
2022/10/22 06:36:13;;;;;;;6.43;2.40;;;13.90;99.90;;;;;;5046676;28;20564;-56
2022/10/22 06:38:41;;;;;;;6.37;2.23;;;14.00;99.90;;;;;;5038885;28;20205;-55
2022/10/22 06:41:11;;;;;;;7.00;2.37;;;14.00;99.90;;;;;;5046426;28;20203;-56
2022/10/22 06:43:38;;;;;;;5.40;2.03;;;14.00;99.90;;;;;;5048608;28;20543;-56
2022/10/22 06:46:11;;;;;;;5.93;2.13;;;14.00;99.90;;;;;;5047831;28;20196;-56
2022/10/22 06:48:47;;;;;;;11.23;2.57;;;14.00;99.90;;;;;;5048584;28;20207;-56
2022/10/22 06:51:14;;;;;;;6.97;1.90;;;14.00;99.90;;;;;;5047472;28;20201;-56
2022/10/22 06:53:41;;;;;;;7.77;2.50;;;14.00;99.90;;;;;;5045111;28;21191;-56
2022/10/22 06:56:11;;;;;;;5.43;1.90;;;14.00;99.90;;;;;;5053963;28;20197;-56
2022/10/22 06:58:38;;;;;;;4.57;2.30;;;14.00;99.90;;;;;;5046198;28;20938;-56
2022/10/22 07:01:13;;;;;;;4.97;1.93;;;14.00;99.90;;;;;;5044738;28;20192;-56
2022/10/22 07:03:41;;;;;;;4.43;2.30;;;14.00;99.90;;;;;;5048682;28;20191;-55
2022/10/22 07:06:11;;;;;;;4.30;1.80;;;14.10;99.90;;;;;;5049670;28;20196;-56
2022/10/22 07:08:39;;;;;;;10.93;2.10;;;14.10;99.90;;;;;;5041735;28;20607;-56
2022/10/22 07:11:21;;;;;;;6.13;1.93;;;14.10;99.90;;;;;;5049849;28;20214;-56
2022/10/22 07:13:48;;;;;;;4.63;2.07;;;14.20;99.90;;;;;;5046664;28;20200;-56
2022/10/22 07:16:16;;;;;;;6.13;2.20;;;14.20;99.90;;;;;;5039831;28;20207;-56
2022/10/22 07:18:44;;;;;;;4.30;2.10;;;14.30;99.90;;;;;;4688282;28;9999960;-55
2022/10/22 07:21:12;;;;;;;7.57;2.20;;;14.30;99.90;;;;;;5034203;28;20210;-57
2022/10/22 07:23:39;;;;;;;7.13;1.90;;;14.40;99.90;;;;;;5049636;28;20200;-56
2022/10/22 07:26:07;;;;;;;7.00;2.70;;;14.40;99.90;;;;;;5040286;28;20192;-56
2022/10/22 07:28:37;;;;;;;8.37;2.10;;;14.40;99.90;;;;;;5036133;28;20204;-56
2022/10/22 07:31:05;;;;;;;7.67;2.00;;;14.50;99.90;;;;;;5041398;28;20197;-56
2022/10/22 07:33:32;;;;;;;6.13;1.63;;;14.60;99.90;;;;;;5044730;28;20304;-57
2022/10/22 07:36:01;;;;;;;6.57;2.00;;;14.80;99.90;;;;;;5033450;28;20205;-56
2022/10/22 07:38:30;;;;;;;6.57;2.40;;;14.80;99.90;;;;;;5040782;28;20352;-56
2022/10/22 07:40:58;;;;;;;6.07;2.23;;;14.90;99.90;;;;;;5044082;28;20213;-57
2022/10/22 07:43:25;;;;;;;6.03;1.87;;;14.80;99.90;;;;;;5061761;28;20671;-55
2022/10/22 07:45:51;;;;;;;6.93;2.30;;;14.80;99.90;;;;;;5037106;28;20203;-56
2022/10/22 07:48:18;;;;;;;5.67;2.43;;;14.80;99.90;;;;;;5041041;28;20201;-55
2022/10/22 07:50:45;;;;;;;8.77;2.37;;;14.90;99.90;;;;;;5048871;28;20214;-55
2022/10/22 07:53:12;;;;;;;8.30;2.33;;;14.90;99.90;;;;;;5040600;28;20223;-56
2022/10/22 07:55:38;;;;;;;4.33;2.23;;;14.90;99.90;;;;;;5037995;28;20255;-55
2022/10/22 07:58:05;;;;;;;8.00;2.50;;;15.00;99.90;;;;;;5040105;28;20228;-55
2022/10/22 08:00:32;;;;;;;10.07;2.10;;;15.00;99.90;;;;;;5035461;28;21021;-56
2022/10/22 08:02:59;;;;;;;7.80;2.20;;;15.00;99.90;;;;;;5034723;28;20201;-55
2022/10/22 08:05:26;;;;;;;8.70;2.97;;;15.10;99.90;;;;;;5040763;28;20197;-55
2022/10/22 08:07:52;;;;;;;5.63;1.90;;;15.10;99.90;;;;;;5047177;28;20219;-56
2022/10/22 08:10:19;;;;;;;5.83;1.97;;;15.30;99.90;;;;;;5053257;28;20225;-56
2022/10/22 08:12:46;;;;;;;5.30;1.97;;;15.70;99.90;;;;;;5041240;28;20198;-56
2022/10/22 08:15:13;;;;;;;7.50;2.03;;;15.80;99.90;;;;;;5042371;28;20221;-55
2022/10/22 08:17:40;;;;;;;8.57;1.87;;;15.90;99.90;;;;;;5048072;28;20245;-56
2022/10/22 08:20:08;;;;;;;5.60;1.60;;;16.20;99.90;;;;;;5051346;28;20296;-56
2022/10/22 08:22:35;;;;;;;4.53;1.67;;;16.40;99.90;;;;;;5040289;28;20220;-56
2022/10/22 08:25:02;;;;;;;4.23;1.87;;;16.20;99.90;;;;;;5036700;28;20194;-56
2022/10/22 08:27:29;;;;;;;4.47;1.90;;;16.30;99.90;;;;;;5035695;28;20238;-55
2022/10/22 08:29:55;;;;;;;5.70;1.70;;;16.50;99.90;;;;;;5045674;28;20303;-56
2022/10/22 08:32:22;;;;;;;5.20;1.63;;;16.70;99.90;;;;;;5040703;28;20224;-56
2022/10/22 08:34:49;;;;;;;3.77;1.70;;;16.80;99.90;;;;;;5034923;28;20281;-55
2022/10/22 08:37:16;;;;;;;5.30;2.03;;;16.50;99.90;;;;;;5052798;28;20209;-56
2022/10/22 08:39:44;;;;;;;7.97;2.00;;;16.10;99.90;;;;;;5040443;28;20301;-56
2022/10/22 08:42:19;;;;;;;7.17;2.27;;;16.00;99.90;;;;;;5043927;28;20823;-56
2022/10/22 08:44:58;;;;;;;4.87;1.40;;;16.00;99.90;;;;;;5056870;28;20654;-56
2022/10/22 08:47:53;;;;;;;9.03;1.80;;;16.10;99.90;;;;;;5041824;28;20221;-56
2022/10/22 08:50:29;;;;;;;7.23;1.70;;;16.10;99.90;;;;;;5041842;28;20206;-55
2022/10/22 08:53:00;;;;;;;4.97;1.87;;;16.20;99.90;;;;;;5046063;28;20197;-56
2022/10/22 08:55:27;;;;;;;7.97;1.83;;;16.00;99.90;;;;;;5038840;28;20246;-56
2022/10/22 08:58:19;;;;;;;7.40;1.93;;;16.00;99.90;;;;;;5040997;28;20226;-56
2022/10/22 09:01:05;;;;;;;6.73;1.83;;;16.10;99.90;;;;;;5042109;28;21038;-56
2022/10/22 09:03:52;;;;;;;9.00;1.77;;;16.10;99.90;;;;;;5041182;28;20566;-56
2022/10/22 09:06:23;;;;;;;6.40;1.63;;;16.00;99.90;;;;;;5039290;28;20759;-56
2022/10/22 09:08:51;;;;;;;6.77;1.43;;;16.00;99.90;;;;;;5037213;28;20580;-55
2022/10/22 09:11:26;;;;;;;8.70;1.77;;;15.90;99.90;;;;;;5042320;28;20240;-57
2022/10/22 09:13:54;;;;;;;7.53;2.00;;;15.90;99.90;;;;;;5039874;28;20206;-55
2022/10/22 09:16:31;;;;;;;3.30;1.47;;;16.00;99.90;;;;;;5042735;28;20865;-56
2022/10/22 09:19:17;;;;;;;6.20;1.80;;;15.90;99.90;;;;;;5038699;28;20278;-56
2022/10/22 09:21:50;;;;;;;6.53;1.67;;;16.00;99.90;;;;;;5046539;28;20202;-56
2022/10/22 09:24:35;;;;;;;3.57;1.30;;;16.00;99.90;;;;;;5039629;28;20199;-56
2022/10/22 09:27:29;;;;;;;7.13;1.50;;;15.90;99.90;;;;;;5036980;28;20292;-56
2022/10/22 09:29:56;;;;;;;7.67;1.90;;;16.00;99.90;;;;;;5041732;28;20287;-55
2022/10/22 09:32:25;;;;;;;4.53;1.57;;;16.10;99.90;;;;;;5039293;28;20202;-56
2022/10/22 09:34:55;;;;;;;9.57;1.67;;;16.20;99.90;;;;;;5039443;28;20199;-56
2022/10/22 09:37:26;;;;;;;6.10;1.87;;;16.20;99.90;;;;;;5034217;28;20221;-56
2022/10/22 09:39:55;;;;;;;5.47;1.60;;;16.20;99.90;;;;;;5056029;28;20268;-56
2022/10/22 09:42:22;;;;;;;7.90;2.00;;;16.20;99.90;;;;;;5043396;28;20189;-56
2022/10/22 09:44:56;;;;;;;8.73;2.00;;;16.10;99.90;;;;;;5040258;28;20229;-56
2022/10/22 09:47:41;;;;;;;7.00;1.63;;;16.20;99.90;;;;;;5038060;28;20206;-56
2022/10/22 09:50:47;;;;;;;7.47;1.90;;;16.10;99.90;;;;;;5044665;28;20285;-56
2022/10/22 09:53:19;;;;;;;4.10;1.90;;;16.10;99.90;;;;;;5045316;28;20202;-56
2022/10/22 09:55:55;;;;;;;6.37;2.13;;;16.10;99.90;;;;;;5044675;28;20234;-56
2022/10/22 09:58:27;;;;;;;4.70;1.80;;;16.10;99.90;;;;;;5042886;28;20253;-57
2022/10/22 10:00:59;;;;;;;6.73;1.80;;;16.10;99.90;;;;;;5039865;28;20211;-56
2022/10/22 10:03:30;;;;;;;5.90;1.47;;;16.10;99.90;;;;;;5040764;28;20198;-56
2022/10/22 10:05:59;;;;;;;7.77;3.77;;;16.10;99.90;;;;;;5042657;28;20198;-56
2022/10/22 10:08:32;;;;;;;4.00;1.60;;;16.10;99.90;;;;;;5041716;28;20248;-56
2022/10/22 10:11:26;;;;;;;4.13;1.63;;;16.10;99.90;;;;;;5043640;28;20237;-56
2022/10/22 10:14:02;;;;;;;5.43;1.60;;;16.20;99.90;;;;;;5041513;28;20200;-56
2022/10/22 10:16:35;;;;;;;6.50;1.70;;;16.20;99.90;;;;;;5043399;28;20693;-57
2022/10/22 10:19:29;;;;;;;4.80;1.67;;;16.30;99.90;;;;;;5037434;28;20203;-56
2022/10/22 10:22:31;;;;;;;7.87;1.83;;;16.40;99.90;;;;;;5035950;28;20243;-56
2022/10/22 10:25:25;;;;;;;7.50;2.00;;;16.60;99.90;;;;;;5041184;28;20299;-57
2022/10/22 10:28:00;;;;;;;6.37;1.80;;;16.60;99.90;;;;;;5039900;28;20209;-57
2022/10/22 10:30:27;;;;;;;3.90;1.50;;;16.90;99.90;;;;;;5042656;28;20985;-56
2022/10/22 10:33:15;;;;;;;10.10;1.80;;;16.90;99.90;;;;;;5044557;28;20195;-61
2022/10/22 10:35:53;;;;;;;5.23;1.87;;;17.00;99.90;;;;;;5037586;28;20302;-56
2022/10/22 10:38:27;;;;;;;6.77;2.27;;;17.10;99.90;;;;;;5040482;28;20669;-57
2022/10/22 10:41:01;;;;;;;6.07;1.80;;;17.30;99.90;;;;;;5045502;28;20279;-57
2022/10/22 10:43:53;;;;;;;4.47;2.00;;;17.40;99.90;;;;;;5039644;28;20200;-56
2022/10/22 10:46:27;;;;;;;8.23;1.90;;;17.40;99.90;;;;;;5044100;28;20202;-55
2022/10/22 10:49:08;;;;;;;5.53;1.97;;;17.50;99.90;;;;;;5036629;28;20734;-55
2022/10/22 10:52:02;;;;;;;9.03;2.20;;;17.40;99.90;;;;;;5041174;28;20193;-55
2022/10/22 10:54:46;;;;;;;8.17;2.40;;;17.50;99.90;;;;;;5042208;28;20261;-56
2022/10/22 10:57:44;;;;;;;8.03;1.83;;;17.50;99.90;;;;;;5041636;28;20202;-56
2022/10/22 11:00:21;;;;;;;8.00;1.80;;;17.60;99.90;;;;;;5039653;28;20226;-56
2022/10/22 11:03:07;;;;;;;7.67;1.60;;;17.60;99.90;;;;;;5045064;28;20230;-56
2022/10/22 11:05:57;;;;;;;6.83;2.03;;;17.60;99.90;;;;;;5041426;28;20614;-56
2022/10/22 11:08:33;;;;;;;14.23;2.37;;;17.60;99.90;;;;;;5042820;28;20201;-56
2022/10/22 11:11:13;;;;;;;4.10;2.27;;;17.60;99.90;;;;;;5037233;28;20233;-56
2022/10/22 11:13:56;;;;;;;7.13;2.17;;;17.40;99.90;;;;;;5043822;28;20203;-55
2022/10/22 11:16:29;;;;;;;5.80;2.33;;;17.30;99.90;;;;;;5043244;28;20203;-56
2022/10/22 11:19:26;;;;;;;15.60;3.50;;;17.30;99.90;;;;;;5043720;28;20198;-55
2022/10/22 11:22:36;;;;;;;4.93;2.20;;;17.30;99.90;;;;;;5035541;28;20210;-55
2022/10/22 11:25:11;;;;;;;8.13;2.13;;;17.50;99.90;;;;;;5036328;28;20682;-56
2022/10/22 11:27:46;;;;;;;5.30;2.00;;;18.00;99.90;;;;;;5040716;28;20222;-57
2022/10/22 11:30:19;;;;;;;5.07;2.20;;;18.20;99.90;;;;;;5038588;28;21168;-56
2022/10/22 11:32:53;;;;;;;8.57;2.53;;;18.30;99.90;;;;;;5035778;28;20673;-58
2022/10/22 11:35:25;;;;;;;9.87;2.37;;;18.10;99.90;;;;;;5036490;28;20209;-56
2022/10/22 11:37:55;;;;;;;7.37;2.67;;;18.00;99.90;;;;;;5038231;28;20201;-60
2022/10/22 11:40:34;;;;;;;7.83;2.30;;;18.50;99.90;;;;;;5033842;28;20214;-57
2022/10/22 11:43:10;;;;;;;5.50;1.93;;;18.50;1.00;;;;;;5036513;28;20215;-56
2022/10/22 11:45:40;;;;;;;12.27;2.30;;;18.60;99.90;;;;;;5040852;28;20702;-56
2022/10/22 11:48:10;;;;;;;8.17;2.40;;;18.70;99.90;;;;;;5036138;28;20213;-55
2022/10/22 11:51:00;;;;;;;7.80;2.33;;;18.70;99.90;;;;;;5033295;28;20192;-56
2022/10/22 11:53:37;;;;;;;5.90;2.47;;;18.70;99.90;;;;;;5037477;28;20208;-55
2022/10/22 11:56:09;;;;;;;8.87;2.23;;;18.80;99.90;;;;;;5033129;28;20256;-56
2022/10/22 11:58:38;;;;;;;6.70;3.07;;;19.00;99.90;;;;;;5033814;28;20202;-56
2022/10/22 12:01:07;;;;;;;5.50;1.87;;;19.00;99.90;;;;;;5033891;28;20243;-57
2022/10/22 12:03:36;;;;;;;6.47;2.50;;;18.80;99.90;;;;;;5040033;28;20305;-55
2022/10/22 12:06:12;;;;;;;9.57;2.57;;;18.60;99.90;;;;;;5036947;28;20206;-55
2022/10/22 12:08:52;;;;;;;5.93;2.33;;;18.40;99.90;;;;;;5047111;28;20291;-59
2022/10/22 12:11:27;;;;;;;5.57;1.80;;;18.30;99.90;;;;;;5046000;28;20346;-56
2022/10/22 12:14:00;;;;;;;8.33;2.10;;;18.50;99.90;;;;;;5045031;28;20287;-58
2022/10/22 12:16:35;;;;;;;7.00;1.90;;;18.30;99.90;;;;;;5038509;28;20208;-55
2022/10/22 12:19:22;;;;;;;10.30;2.40;;;18.10;99.90;;;;;;5042129;28;20215;-57
2022/10/22 12:21:56;;;;;;;8.50;2.10;;;18.20;99.90;;;;;;5035325;28;20637;-56
2022/10/22 12:24:25;;;;;;;10.80;1.97;;;18.20;99.90;;;;;;5041410;28;20282;-56
2022/10/22 12:26:51;;;;;;;9.83;2.73;;;18.20;99.90;;;;;;5040356;28;20286;-56
2022/10/22 12:29:25;;;;;;;8.30;2.00;;;18.20;99.90;;;;;;5040901;28;20195;-55
2022/10/22 12:31:53;;;;;;;10.20;3.23;;;18.10;99.90;;;;;;5047029;28;20597;-55
2022/10/22 12:34:22;;;;;;;9.03;2.20;;;18.10;99.90;;;;;;5040367;28;20191;-55
2022/10/22 12:36:51;;;;;;;13.23;2.27;;;17.90;99.90;;;;;;5045728;28;20703;-55
2022/10/22 12:39:24;;;;;;;4.17;1.73;;;18.00;99.90;;;;;;5045172;28;20309;-56
2022/10/22 12:41:52;;;;;;;12.47;2.77;;;18.30;99.90;;;;;;5042665;28;20216;-57
2022/10/22 12:44:20;;;;;;;7.73;2.77;;;18.50;99.90;;;;;;5039813;28;20200;-55
2022/10/22 12:46:49;;;;;;;5.57;2.37;;;18.30;99.90;;;;;;5043534;28;20195;-56
2022/10/22 12:49:27;;;;;;;8.63;2.17;;;18.30;99.90;;;;;;5041561;28;20290;-55
2022/10/22 12:51:53;;;;;;;9.83;2.33;;;18.50;99.90;;;;;;5042779;28;20346;-56
2022/10/22 12:54:29;;;;;;;6.60;2.03;;;19.00;99.90;;;;;;5043798;28;20224;-56
2022/10/22 12:56:57;;;;;;;8.33;2.83;;;19.50;99.90;;;;;;5041206;28;20686;-56
2022/10/22 12:59:36;;;;;;;6.87;2.43;;;19.20;99.90;;;;;;5039716;28;20291;-57
2022/10/22 13:02:29;;;;;;;7.67;2.00;;;18.90;99.90;;;;;;5048723;28;20219;-55
2022/10/22 13:05:22;;;;;;;6.43;1.50;;;19.30;99.90;;;;;;5039023;28;20192;-55
2022/10/22 13:08:10;;;;;;;9.20;1.90;;;19.50;99.90;;;;;;5039831;28;20376;-56
2022/10/22 13:10:40;;;;;;;8.20;1.80;;;19.40;99.90;;;;;;5042218;28;20301;-55
2022/10/22 13:13:31;;;;;;;8.83;1.93;;;19.10;99.90;;;;;;5041100;28;20287;-58